sensor_id;sensor_type;location;lat;lon;timestamp;pressure;altitude;pressure_sealevel;temperature;humidity
6136;BME280;24008;42.664;23.372;2023-03-25T00:02:17;94276.59;;;7.31;73.02
6136;BME280;24008;42.664;23.372;2023-03-25T00:04:47;94489.09;;;8.52;73.91
6136;BME280;24008;42.664;23.372;2023-03-25T00:07:16;94478.91;;;8.43;73.86
6136;BME280;24008;42.664;23.372;2023-03-25T00:09:44;94343.50;;;7.41;73.90
6136;BME280;24008;42.664;23.372;2023-03-25T00:12:11;94488.78;;;8.26;74.08
6136;BME280;24008;42.664;23.372;2023-03-25T00:14:38;94482.06;;;8.25;74.15
6136;BME280;24008;42.664;23.372;2023-03-25T00:17:04;94489.03;;;8.23;74.57
6136;BME280;24008;42.664;23.372;2023-03-25T00:19:33;94420.53;;;7.82;74.63
6136;BME280;24008;42.664;23.372;2023-03-25T00:22:01;94476.44;;;8.22;74.93
6136;BME280;24008;42.664;23.372;2023-03-25T00:24:29;94410.63;;;7.69;75.44
6136;BME280;24008;42.664;23.372;2023-03-25T00:26:56;94440.53;;;7.96;75.75
6136;BME280;24008;42.664;23.372;2023-03-25T00:29:23;94364.78;;;7.50;75.49
6136;BME280;24008;42.664;23.372;2023-03-25T00:31:49;94469.84;;;8.10;75.60
6136;BME280;24008;42.664;23.372;2023-03-25T00:34:16;94428.44;;;7.88;76.52
6136;BME280;24008;42.664;23.372;2023-03-25T00:36:44;94468.09;;;8.10;76.64
6136;BME280;24008;42.664;23.372;2023-03-25T00:39:11;94398.16;;;7.66;76.59
6136;BME280;24008;42.664;23.372;2023-03-25T00:41:39;94423.91;;;7.82;76.71
6136;BME280;24008;42.664;23.372;2023-03-25T00:44:09;94339.19;;;7.22;76.23
6136;BME280;24008;42.664;23.372;2023-03-25T00:46:38;94427.63;;;7.78;76.72
6136;BME280;24008;42.664;23.372;2023-03-25T00:49:06;94469.16;;;7.98;76.48
6136;BME280;24008;42.664;23.372;2023-03-25T00:51:33;94452.28;;;7.87;76.66
6136;BME280;24008;42.664;23.372;2023-03-25T00:53:59;94455.09;;;7.84;77.54
6136;BME280;24008;42.664;23.372;2023-03-25T00:56:27;94462.75;;;7.84;77.20
6136;BME280;24008;42.664;23.372;2023-03-25T00:58:56;94453.50;;;7.83;77.76
6136;BME280;24008;42.664;23.372;2023-03-25T01:01:25;94457.91;;;7.81;78.18
6136;BME280;24008;42.664;23.372;2023-03-25T01:03:54;94324.91;;;6.91;78.14
6136;BME280;24008;42.664;23.372;2023-03-25T01:06:24;94453.59;;;7.72;78.12
6136;BME280;24008;42.664;23.372;2023-03-25T01:08:54;94442.75;;;7.70;78.65
6136;BME280;24008;42.664;23.372;2023-03-25T01:11:24;94449.44;;;7.71;78.87
6136;BME280;24008;42.664;23.372;2023-03-25T01:13:53;94445.00;;;7.73;79.29
6136;BME280;24008;42.664;23.372;2023-03-25T01:16:22;94439.91;;;7.73;79.22
6136;BME280;24008;42.664;23.372;2023-03-25T01:18:49;94388.44;;;7.41;78.83
6136;BME280;24008;42.664;23.372;2023-03-25T01:21:15;94438.34;;;7.72;79.10
6136;BME280;24008;42.664;23.372;2023-03-25T01:23:42;94419.19;;;7.68;79.33
6136;BME280;24008;42.664;23.372;2023-03-25T01:26:09;94349.34;;;7.22;79.93
6136;BME280;24008;42.664;23.372;2023-03-25T01:28:37;94361.41;;;7.30;79.38
6136;BME280;24008;42.664;23.372;2023-03-25T01:31:06;94395.72;;;7.55;79.00
6136;BME280;24008;42.664;23.372;2023-03-25T01:33:34;94416.09;;;7.74;79.33
6136;BME280;24008;42.664;23.372;2023-03-25T01:36:02;94409.94;;;7.77;79.25
6136;BME280;24008;42.664;23.372;2023-03-25T01:38:29;94404.72;;;7.78;79.35
6136;BME280;24008;42.664;23.372;2023-03-25T01:40:56;94402.31;;;7.77;79.00
6136;BME280;24008;42.664;23.372;2023-03-25T01:43:23;94388.78;;;7.57;78.92
6136;BME280;24008;42.664;23.372;2023-03-25T01:45:50;94308.38;;;7.06;78.28
6136;BME280;24008;42.664;23.372;2023-03-25T01:48:21;94398.16;;;7.66;78.17
6136;BME280;24008;42.664;23.372;2023-03-25T01:50:54;94325.53;;;7.23;78.87
6136;BME280;24008;42.664;23.372;2023-03-25T01:53:22;94323.50;;;7.17;78.97
6136;BME280;24008;42.664;23.372;2023-03-25T01:55:50;94372.94;;;7.44;79.07
6136;BME280;24008;42.664;23.372;2023-03-25T01:58:20;94310.22;;;7.04;79.00
6136;BME280;24008;42.664;23.372;2023-03-25T02:00:48;94411.41;;;7.60;79.53
6136;BME280;24008;42.664;23.372;2023-03-25T02:03:16;94410.56;;;7.50;79.74
6136;BME280;24008;42.664;23.372;2023-03-25T02:05:48;94337.47;;;6.93;79.58
6136;BME280;24008;42.664;23.372;2023-03-25T02:08:20;94294.59;;;6.69;79.92
6136;BME280;24008;42.664;23.372;2023-03-25T02:10:48;94308.53;;;6.74;80.04
6136;BME280;24008;42.664;23.372;2023-03-25T02:13:16;94396.88;;;7.32;80.60
6136;BME280;24008;42.664;23.372;2023-03-25T02:15:55;94337.22;;;6.96;80.89
6136;BME280;24008;42.664;23.372;2023-03-25T02:18:37;94388.69;;;7.28;81.23
6136;BME280;24008;42.664;23.372;2023-03-25T02:24:41;94390.94;;;7.21;81.63
6136;BME280;24008;42.664;23.372;2023-03-25T02:27:22;94416.19;;;7.13;81.31
6136;BME280;24008;42.664;23.372;2023-03-25T02:30:02;94384.59;;;7.06;81.82
6136;BME280;24008;42.664;23.372;2023-03-25T02:32:56;94386.47;;;7.04;81.55
6136;BME280;24008;42.664;23.372;2023-03-25T02:35:43;94317.91;;;6.53;81.78
6136;BME280;24008;42.664;23.372;2023-03-25T02:38:31;94356.59;;;6.66;82.29
6136;BME280;24008;42.664;23.372;2023-03-25T02:41:05;94349.38;;;6.62;82.47
6136;BME280;24008;42.664;23.372;2023-03-25T02:43:38;94337.09;;;6.36;82.97
6136;BME280;24008;42.664;23.372;2023-03-25T02:46:10;94384.78;;;6.84;82.54
6136;BME280;24008;42.664;23.372;2023-03-25T02:48:41;94382.13;;;6.85;82.92
6136;BME280;24008;42.664;23.372;2023-03-25T02:51:15;94374.63;;;6.84;83.48
6136;BME280;24008;42.664;23.372;2023-03-25T02:53:45;94307.31;;;6.38;83.17
6136;BME280;24008;42.664;23.372;2023-03-25T02:56:15;94382.06;;;6.76;83.19
6136;BME280;24008;42.664;23.372;2023-03-25T02:58:47;94263.56;;;6.04;83.77
6136;BME280;24008;42.664;23.372;2023-03-25T03:01:16;94375.63;;;6.72;83.82
6136;BME280;24008;42.664;23.372;2023-03-25T03:03:42;94356.31;;;6.60;83.87
6136;BME280;24008;42.664;23.372;2023-03-25T03:06:15;94370.31;;;6.75;84.12
6136;BME280;24008;42.664;23.372;2023-03-25T03:08:55;94327.78;;;6.46;84.35
6136;BME280;24008;42.664;23.372;2023-03-25T03:11:27;94326.75;;;6.49;84.22
6136;BME280;24008;42.664;23.372;2023-03-25T03:14:13;94369.19;;;6.68;84.80
6136;BME280;24008;42.664;23.372;2023-03-25T03:16:48;94353.09;;;6.58;84.44
6136;BME280;24008;42.664;23.372;2023-03-25T03:19:33;94366.75;;;6.66;84.63
6136;BME280;24008;42.664;23.372;2023-03-25T03:22:16;94308.81;;;6.20;84.61
6136;BME280;24008;42.664;23.372;2023-03-25T03:24:50;94370.19;;;6.56;84.77
6136;BME280;24008;42.664;23.372;2023-03-25T03:27:25;94374.47;;;6.55;84.57
6136;BME280;24008;42.664;23.372;2023-03-25T03:30:03;94368.84;;;6.52;84.93
6136;BME280;24008;42.664;23.372;2023-03-25T03:32:35;94372.03;;;6.54;85.29
6136;BME280;24008;42.664;23.372;2023-03-25T03:35:12;94375.38;;;6.54;85.28
6136;BME280;24008;42.664;23.372;2023-03-25T03:37:44;94369.38;;;6.55;85.53
6136;BME280;24008;42.664;23.372;2023-03-25T03:40:16;94340.09;;;6.30;85.62
6136;BME280;24008;42.664;23.372;2023-03-25T03:42:46;94248.16;;;5.75;85.40
6136;BME280;24008;42.664;23.372;2023-03-25T03:45:17;94155.16;;;5.14;85.31
6136;BME280;24008;42.664;23.372;2023-03-25T03:47:50;94169.06;;;5.19;85.68
6136;BME280;24008;42.664;23.372;2023-03-25T03:50:22;94384.69;;;6.44;85.34
6136;BME280;24008;42.664;23.372;2023-03-25T03:52:52;94382.38;;;6.41;85.08
6136;BME280;24008;42.664;23.372;2023-03-25T03:55:27;94373.03;;;6.41;85.65
6136;BME280;24008;42.664;23.372;2023-03-25T03:57:59;94285.03;;;5.79;85.75
6136;BME280;24008;42.664;23.372;2023-03-25T04:00:31;94375.84;;;6.38;86.19
6136;BME280;24008;42.664;23.372;2023-03-25T04:03:09;94373.53;;;6.35;86.24
6136;BME280;24008;42.664;23.372;2023-03-25T04:05:39;94227.41;;;5.29;85.81
6136;BME280;24008;42.664;23.372;2023-03-25T04:08:11;94362.59;;;6.14;85.87
6136;BME280;24008;42.664;23.372;2023-03-25T04:10:45;94381.69;;;6.18;86.55
6136;BME280;24008;42.664;23.372;2023-03-25T04:13:19;94387.03;;;6.15;87.21
6136;BME280;24008;42.664;23.372;2023-03-25T04:15:47;94390.06;;;6.09;87.10
6136;BME280;24008;42.664;23.372;2023-03-25T04:18:14;94286.34;;;5.42;87.53
6136;BME280;24008;42.664;23.372;2023-03-25T04:20:42;94382.56;;;6.07;88.06
6136;BME280;24008;42.664;23.372;2023-03-25T04:23:10;94232.25;;;5.21;88.44
6136;BME280;24008;42.664;23.372;2023-03-25T04:25:41;94369.75;;;6.09;89.35
6136;BME280;24008;42.664;23.372;2023-03-25T04:28:12;94100.66;;;4.34;89.04
6136;BME280;24008;42.664;23.372;2023-03-25T04:30:42;94387.28;;;6.12;89.68
6136;BME280;24008;42.664;23.372;2023-03-25T04:33:10;94379.28;;;6.17;89.32
6136;BME280;24008;42.664;23.372;2023-03-25T04:35:37;94325.59;;;5.79;89.26
6136;BME280;24008;42.664;23.372;2023-03-25T04:38:04;94371.06;;;6.24;89.44
6136;BME280;24008;42.664;23.372;2023-03-25T04:40:32;94301.44;;;5.64;89.38
6136;BME280;24008;42.664;23.372;2023-03-25T04:43:00;94350.38;;;6.08;89.56
6136;BME280;24008;42.664;23.372;2023-03-25T04:45:26;94385.31;;;6.36;89.77
6136;BME280;24008;42.664;23.372;2023-03-25T04:47:54;94392.41;;;6.42;89.91
6136;BME280;24008;42.664;23.372;2023-03-25T04:50:23;94386.84;;;6.48;89.69
6136;BME280;24008;42.664;23.372;2023-03-25T04:52:52;94388.66;;;6.58;88.82
6136;BME280;24008;42.664;23.372;2023-03-25T04:55:19;94384.94;;;6.62;89.26
6136;BME280;24008;42.664;23.372;2023-03-25T04:57:47;94260.84;;;5.96;89.17
6136;BME280;24008;42.664;23.372;2023-03-25T05:00:17;94394.41;;;6.90;88.08
6136;BME280;24008;42.664;23.372;2023-03-25T05:02:46;94392.31;;;6.95;87.66
6136;BME280;24008;42.664;23.372;2023-03-25T05:05:13;94334.94;;;6.62;87.01
6136;BME280;24008;42.664;23.372;2023-03-25T05:07:44;94386.34;;;7.06;86.29
6136;BME280;24008;42.664;23.372;2023-03-25T05:10:11;94314.00;;;6.70;85.63
6136;BME280;24008;42.664;23.372;2023-03-25T05:12:38;94385.75;;;7.33;86.08
6136;BME280;24008;42.664;23.372;2023-03-25T05:15:06;94323.50;;;7.08;85.14
6136;BME280;24008;42.664;23.372;2023-03-25T05:17:35;94380.88;;;7.60;84.58
6136;BME280;24008;42.664;23.372;2023-03-25T05:20:02;94397.47;;;7.74;84.40
6136;BME280;24008;42.664;23.372;2023-03-25T05:22:32;94394.44;;;7.89;84.07
6136;BME280;24008;42.664;23.372;2023-03-25T05:24:59;94280.34;;;7.56;82.54
6136;BME280;24008;42.664;23.372;2023-03-25T05:27:27;94270.22;;;8.22;79.58
6136;BME280;24008;42.664;23.372;2023-03-25T05:29:54;94325.06;;;9.10;76.52
6136;BME280;24008;42.664;23.372;2023-03-25T05:32:22;94390.09;;;10.31;73.82
6136;BME280;24008;42.664;23.372;2023-03-25T05:34:51;94284.59;;;10.39;70.54
6136;BME280;24008;42.664;23.372;2023-03-25T05:37:20;94379.19;;;11.67;67.00
6136;BME280;24008;42.664;23.372;2023-03-25T05:39:47;94336.47;;;11.59;64.78
6136;BME280;24008;42.664;23.372;2023-03-25T05:42:14;94382.97;;;12.05;63.68
6136;BME280;24008;42.664;23.372;2023-03-25T05:44:41;94379.50;;;12.30;62.60
6136;BME280;24008;42.664;23.372;2023-03-25T05:47:15;94383.16;;;12.76;60.54
6136;BME280;24008;42.664;23.372;2023-03-25T05:49:44;94283.53;;;12.33;60.50
6136;BME280;24008;42.664;23.372;2023-03-25T05:52:13;94223.00;;;12.40;59.46
6136;BME280;24008;42.664;23.372;2023-03-25T05:54:41;94383.03;;;13.72;58.04
6136;BME280;24008;42.664;23.372;2023-03-25T05:57:10;94339.94;;;13.59;57.49
6136;BME280;24008;42.664;23.372;2023-03-25T05:59:37;94387.66;;;14.07;56.57
6136;BME280;24008;42.664;23.372;2023-03-25T06:02:05;94389.53;;;14.14;55.67
6136;BME280;24008;42.664;23.372;2023-03-25T06:04:33;94388.56;;;14.46;55.05
6136;BME280;24008;42.664;23.372;2023-03-25T06:07:05;94336.97;;;14.62;52.91
6136;BME280;24008;42.664;23.372;2023-03-25T06:09:35;94331.97;;;14.83;53.06
6136;BME280;24008;42.664;23.372;2023-03-25T06:12:02;94396.84;;;15.23;53.59
6136;BME280;24008;42.664;23.372;2023-03-25T06:14:29;94334.88;;;15.39;51.01
6136;BME280;24008;42.664;23.372;2023-03-25T06:16:56;94369.16;;;16.47;49.41
6136;BME280;24008;42.664;23.372;2023-03-25T06:19:22;94369.81;;;17.40;46.58
6136;BME280;24008;42.664;23.372;2023-03-25T06:21:51;94371.97;;;18.51;43.15
6136;BME280;24008;42.664;23.372;2023-03-25T06:24:18;94368.59;;;19.23;41.83
6136;BME280;24008;42.664;23.372;2023-03-25T06:26:46;94369.16;;;19.38;41.23
6136;BME280;24008;42.664;23.372;2023-03-25T06:29:15;94354.88;;;19.03;40.75
6136;BME280;24008;42.664;23.372;2023-03-25T06:31:42;94377.50;;;19.67;40.34
6136;BME280;24008;42.664;23.372;2023-03-25T06:34:09;94375.00;;;19.92;39.99
6136;BME280;24008;42.664;23.372;2023-03-25T06:36:35;94382.97;;;19.90;40.07
6136;BME280;24008;42.664;23.372;2023-03-25T06:39:02;94392.56;;;19.83;40.54
6136;BME280;24008;42.664;23.372;2023-03-25T06:41:30;94326.59;;;19.01;41.36
6136;BME280;24008;42.664;23.372;2023-03-25T06:44:01;94361.41;;;19.32;40.96
6136;BME280;24008;42.664;23.372;2023-03-25T06:46:29;94341.91;;;18.96;40.92
6136;BME280;24008;42.664;23.372;2023-03-25T06:48:56;94383.91;;;19.38;41.33
6136;BME280;24008;42.664;23.372;2023-03-25T06:51:22;94390.09;;;19.43;41.26
6136;BME280;24008;42.664;23.372;2023-03-25T06:53:49;94407.81;;;19.66;40.77
6136;BME280;24008;42.664;23.372;2023-03-25T06:56:16;94366.22;;;19.86;39.99
6136;BME280;24008;42.664;23.372;2023-03-25T06:58:43;94366.69;;;20.14;39.60
6136;BME280;24008;42.664;23.372;2023-03-25T07:01:11;94335.44;;;19.96;39.62
6136;BME280;24008;42.664;23.372;2023-03-25T07:03:37;94395.63;;;20.56;39.06
6136;BME280;24008;42.664;23.372;2023-03-25T07:06:06;94366.00;;;20.39;38.47
6136;BME280;24008;42.664;23.372;2023-03-25T07:08:33;94295.63;;;19.84;38.54
6136;BME280;24008;42.664;23.372;2023-03-25T07:11:00;94391.81;;;21.08;37.90
6136;BME280;24008;42.664;23.372;2023-03-25T07:13:27;94394.59;;;21.93;36.52
6136;BME280;24008;42.664;23.372;2023-03-25T07:15:55;94267.31;;;20.89;36.47
6136;BME280;24008;42.664;23.372;2023-03-25T07:18:24;94288.75;;;20.59;37.00
6136;BME280;24008;42.664;23.372;2023-03-25T07:20:51;94382.44;;;21.07;37.14
6136;BME280;24008;42.664;23.372;2023-03-25T07:23:18;94288.63;;;20.72;36.44
6136;BME280;24008;42.664;23.372;2023-03-25T07:25:44;94348.84;;;20.88;37.03
6136;BME280;24008;42.664;23.372;2023-03-25T07:28:11;94395.38;;;21.57;37.26
6136;BME280;24008;42.664;23.372;2023-03-25T07:30:38;94390.22;;;21.87;35.98
6136;BME280;24008;42.664;23.372;2023-03-25T07:33:05;94208.25;;;20.77;35.47
6136;BME280;24008;42.664;23.372;2023-03-25T07:35:33;94331.63;;;21.36;36.86
6136;BME280;24008;42.664;23.372;2023-03-25T07:38:00;94383.88;;;22.19;36.29
6136;BME280;24008;42.664;23.372;2023-03-25T07:40:27;94330.69;;;22.27;34.52
6136;BME280;24008;42.664;23.372;2023-03-25T07:42:53;94353.38;;;22.80;34.78
6136;BME280;24008;42.664;23.372;2023-03-25T07:45:20;94274.81;;;22.64;33.29
6136;BME280;24008;42.664;23.372;2023-03-25T07:47:47;94373.53;;;23.31;33.42
6136;BME280;24008;42.664;23.372;2023-03-25T07:50:15;94379.88;;;22.77;33.50
6136;BME280;24008;42.664;23.372;2023-03-25T07:52:43;94372.53;;;23.32;33.25
6136;BME280;24008;42.664;23.372;2023-03-25T07:55:10;94333.66;;;23.07;32.43
6136;BME280;24008;42.664;23.372;2023-03-25T07:57:37;94292.84;;;23.24;31.92
6136;BME280;24008;42.664;23.372;2023-03-25T08:00:05;94363.28;;;23.88;32.45
6136;BME280;24008;42.664;23.372;2023-03-25T08:02:32;94317.94;;;24.34;31.09
6136;BME280;24008;42.664;23.372;2023-03-25T08:04:59;94266.88;;;24.26;30.39
6136;BME280;24008;42.664;23.372;2023-03-25T08:07:27;94345.38;;;24.82;30.83
6136;BME280;24008;42.664;23.372;2023-03-25T08:09:55;94350.69;;;24.87;30.85
6136;BME280;24008;42.664;23.372;2023-03-25T08:12:21;94352.69;;;24.96;30.18
6136;BME280;24008;42.664;23.372;2023-03-25T08:14:48;94351.09;;;24.95;30.16
6136;BME280;24008;42.664;23.372;2023-03-25T08:17:15;94352.00;;;25.39;30.08
6136;BME280;24008;42.664;23.372;2023-03-25T08:19:42;94352.41;;;25.92;29.32
6136;BME280;24008;42.664;23.372;2023-03-25T08:22:09;94235.38;;;25.22;28.71
6136;BME280;24008;42.664;23.372;2023-03-25T08:24:36;94337.34;;;25.60;29.25
6136;BME280;24008;42.664;23.372;2023-03-25T08:27:04;94345.56;;;25.47;29.55
6136;BME280;24008;42.664;23.372;2023-03-25T08:29:31;94350.13;;;25.35;29.56
6136;BME280;24008;42.664;23.372;2023-03-25T08:31:59;94335.91;;;25.31;29.71
6136;BME280;24008;42.664;23.372;2023-03-25T08:34:25;94312.50;;;24.69;30.41
6136;BME280;24008;42.664;23.372;2023-03-25T08:36:52;94166.69;;;23.14;31.36
6136;BME280;24008;42.664;23.372;2023-03-25T08:39:19;94344.06;;;23.94;32.54
6136;BME280;24008;42.664;23.372;2023-03-25T08:41:46;94331.25;;;24.66;31.27
6136;BME280;24008;42.664;23.372;2023-03-25T08:44:14;94217.88;;;24.33;30.39
6136;BME280;24008;42.664;23.372;2023-03-25T08:46:41;94322.00;;;25.47;30.06
6136;BME280;24008;42.664;23.372;2023-03-25T08:49:08;94318.69;;;25.73;29.40
6136;BME280;24008;42.664;23.372;2023-03-25T08:51:34;94259.34;;;24.80;30.44
6136;BME280;24008;42.664;23.372;2023-03-25T08:54:01;94323.19;;;24.84;30.80
6136;BME280;24008;42.664;23.372;2023-03-25T08:56:28;94328.13;;;25.36;30.22
6136;BME280;24008;42.664;23.372;2023-03-25T08:58:55;94319.84;;;25.82;29.60
6136;BME280;24008;42.664;23.372;2023-03-25T09:01:23;94318.34;;;25.48;29.99
6136;BME280;24008;42.664;23.372;2023-03-25T09:03:50;94315.34;;;24.51;31.54
6136;BME280;24008;42.664;23.372;2023-03-25T09:06:16;94309.53;;;23.75;32.72
6136;BME280;24008;42.664;23.372;2023-03-25T09:08:43;94304.38;;;23.40;33.10
6136;BME280;24008;42.664;23.372;2023-03-25T09:11:10;94074.91;;;22.08;32.76
6136;BME280;24008;42.664;23.372;2023-03-25T09:13:37;94201.72;;;23.46;31.98
6136;BME280;24008;42.664;23.372;2023-03-25T09:16:05;94246.38;;;24.35;31.42
6136;BME280;24008;42.664;23.372;2023-03-25T09:18:33;94293.03;;;25.32;30.94
6136;BME280;24008;42.664;23.372;2023-03-25T09:21:01;94168.63;;;24.59;31.18
6136;BME280;24008;42.664;23.372;2023-03-25T09:23:28;94294.50;;;24.89;31.80
6136;BME280;24008;42.664;23.372;2023-03-25T09:25:59;94229.44;;;24.71;31.82
6136;BME280;24008;42.664;23.372;2023-03-25T09:28:26;94235.84;;;25.40;29.82
6136;BME280;24008;42.664;23.372;2023-03-25T09:30:53;94227.97;;;25.84;29.30
6136;BME280;24008;42.664;23.372;2023-03-25T09:33:21;94277.06;;;25.99;29.79
6136;BME280;24008;42.664;23.372;2023-03-25T09:35:49;94260.03;;;24.92;30.11
6136;BME280;24008;42.664;23.372;2023-03-25T09:38:16;94256.44;;;23.98;31.49
6136;BME280;24008;42.664;23.372;2023-03-25T09:40:43;94269.50;;;23.98;34.06
6136;BME280;24008;42.664;23.372;2023-03-25T09:43:28;94247.19;;;24.07;33.32
6136;BME280;24008;42.664;23.372;2023-03-25T09:45:58;94272.19;;;24.48;31.78
6136;BME280;24008;42.664;23.372;2023-03-25T09:48:29;94220.38;;;24.95;30.79
6136;BME280;24008;42.664;23.372;2023-03-25T09:51:02;94259.09;;;26.07;29.99
6136;BME280;24008;42.664;23.372;2023-03-25T09:53:33;94189.81;;;25.66;29.12
6136;BME280;24008;42.664;23.372;2023-03-25T09:56:02;94254.81;;;25.74;30.25
6136;BME280;24008;42.664;23.372;2023-03-25T09:58:39;94245.56;;;24.85;31.16
6136;BME280;24008;42.664;23.372;2023-03-25T10:01:26;94238.78;;;24.33;31.61
6136;BME280;24008;42.664;23.372;2023-03-25T10:04:02;94241.81;;;24.25;32.34
6136;BME280;24008;42.664;23.372;2023-03-25T10:06:42;94154.78;;;23.46;33.07
6136;BME280;24008;42.664;23.372;2023-03-25T10:09:30;94216.25;;;23.99;34.05
6136;BME280;24008;42.664;23.372;2023-03-25T10:12:09;94128.03;;;23.67;32.33
6136;BME280;24008;42.664;23.372;2023-03-25T10:14:48;94095.88;;;23.33;32.59
6136;BME280;24008;42.664;23.372;2023-03-25T10:17:31;94155.72;;;23.12;32.50
6136;BME280;24008;42.664;23.372;2023-03-25T10:20:05;94233.22;;;23.28;33.36
6136;BME280;24008;42.664;23.372;2023-03-25T10:22:38;94221.31;;;23.20;32.77
6136;BME280;24008;42.664;23.372;2023-03-25T10:25:13;94195.94;;;23.16;32.58
6136;BME280;24008;42.664;23.372;2023-03-25T10:27:43;94202.38;;;23.25;31.59
6136;BME280;24008;42.664;23.372;2023-03-25T10:30:13;94098.28;;;22.55;31.50
6136;BME280;24008;42.664;23.372;2023-03-25T10:32:44;94202.88;;;23.50;32.28
6136;BME280;24008;42.664;23.372;2023-03-25T10:35:16;94203.28;;;23.87;31.18
6136;BME280;24008;42.664;23.372;2023-03-25T10:37:46;94177.50;;;23.91;30.16
6136;BME280;24008;42.664;23.372;2023-03-25T10:40:21;94201.66;;;24.31;29.92
6136;BME280;24008;42.664;23.372;2023-03-25T10:42:57;94167.38;;;24.11;28.88
6136;BME280;24008;42.664;23.372;2023-03-25T10:45:25;94190.81;;;24.39;29.52
6136;BME280;24008;42.664;23.372;2023-03-25T10:48:00;94185.88;;;24.60;27.81
6136;BME280;24008;42.664;23.372;2023-03-25T10:50:30;94189.06;;;24.62;28.81
6136;BME280;24008;42.664;23.372;2023-03-25T10:52:58;94086.34;;;24.06;28.43
6136;BME280;24008;42.664;23.372;2023-03-25T10:55:27;94184.06;;;24.60;28.29
6136;BME280;24008;42.664;23.372;2023-03-25T10:57:57;94149.00;;;24.06;28.74
6136;BME280;24008;42.664;23.372;2023-03-25T11:00:23;94177.31;;;23.64;30.23
6136;BME280;24008;42.664;23.372;2023-03-25T11:02:51;94170.19;;;23.48;30.88
6136;BME280;24008;42.664;23.372;2023-03-25T11:05:21;94023.25;;;22.40;30.17
6136;BME280;24008;42.664;23.372;2023-03-25T11:07:50;94160.09;;;23.23;30.35
6136;BME280;24008;42.664;23.372;2023-03-25T11:10:21;94129.72;;;22.88;31.49
6136;BME280;24008;42.664;23.372;2023-03-25T11:12:50;94160.50;;;23.03;31.65
6136;BME280;24008;42.664;23.372;2023-03-25T11:15:20;94149.69;;;23.11;30.68
6136;BME280;24008;42.664;23.372;2023-03-25T11:17:56;94090.44;;;23.35;30.67
6136;BME280;24008;42.664;23.372;2023-03-25T11:20:27;94140.31;;;24.17;30.83
6136;BME280;24008;42.664;23.372;2023-03-25T11:23:01;94090.31;;;24.09;30.99
6136;BME280;24008;42.664;23.372;2023-03-25T11:25:32;94130.19;;;24.37;30.60
6136;BME280;24008;42.664;23.372;2023-03-25T11:28:04;94133.50;;;24.16;30.96
6136;BME280;24008;42.664;23.372;2023-03-25T11:30:35;94129.31;;;24.15;31.17
6136;BME280;24008;42.664;23.372;2023-03-25T11:33:04;94094.44;;;23.88;31.52
6136;BME280;24008;42.664;23.372;2023-03-25T11:35:36;94115.78;;;23.51;31.48
6136;BME280;24008;42.664;23.372;2023-03-25T11:38:13;94113.16;;;23.51;31.90
6136;BME280;24008;42.664;23.372;2023-03-25T11:40:48;94083.50;;;23.41;31.87
6136;BME280;24008;42.664;23.372;2023-03-25T11:43:19;94089.81;;;23.45;33.13
6136;BME280;24008;42.664;23.372;2023-03-25T11:45:47;94099.72;;;23.31;33.00
6136;BME280;24008;42.664;23.372;2023-03-25T11:48:16;93985.34;;;22.33;32.03
6136;BME280;24008;42.664;23.372;2023-03-25T11:50:45;94092.66;;;22.86;31.36
6136;BME280;24008;42.664;23.372;2023-03-25T11:53:17;94095.59;;;22.90;32.10
6136;BME280;24008;42.664;23.372;2023-03-25T11:55:48;94084.41;;;22.89;31.59
6136;BME280;24008;42.664;23.372;2023-03-25T11:58:20;94088.38;;;23.09;31.68
6136;BME280;24008;42.664;23.372;2023-03-25T12:00:48;94021.41;;;22.92;31.60
6136;BME280;24008;42.664;23.372;2023-03-25T12:03:19;94055.31;;;23.54;31.85
6136;BME280;24008;42.664;23.372;2023-03-25T12:05:57;94055.84;;;23.73;32.02
6136;BME280;24008;42.664;23.372;2023-03-25T12:08:28;94072.03;;;23.92;30.39
6136;BME280;24008;42.664;23.372;2023-03-25T12:11:00;94069.84;;;23.84;31.71
6136;BME280;24008;42.664;23.372;2023-03-25T12:13:37;94060.66;;;23.48;31.04
6136;BME280;24008;42.664;23.372;2023-03-25T12:16:25;94065.22;;;22.95;31.17
6136;BME280;24008;42.664;23.372;2023-03-25T12:19:09;94011.72;;;22.76;32.08
6136;BME280;24008;42.664;23.372;2023-03-25T12:21:53;94064.81;;;23.15;31.84
6136;BME280;24008;42.664;23.372;2023-03-25T12:24:31;94024.91;;;22.86;32.18
6136;BME280;24008;42.664;23.372;2023-03-25T12:27:13;94064.38;;;22.78;31.62
6136;BME280;24008;42.664;23.372;2023-03-25T12:29:47;94068.75;;;22.38;32.36
6136;BME280;24008;42.664;23.372;2023-03-25T12:32:26;94062.34;;;22.17;32.66
6136;BME280;24008;42.664;23.372;2023-03-25T12:35:06;94040.38;;;22.01;32.37
6136;BME280;24008;42.664;23.372;2023-03-25T12:37:51;94067.41;;;22.12;32.07
6136;BME280;24008;42.664;23.372;2023-03-25T12:40:32;94061.88;;;21.97;32.53
6136;BME280;24008;42.664;23.372;2023-03-25T12:43:09;94065.38;;;22.02;33.01
6136;BME280;24008;42.664;23.372;2023-03-25T12:45:48;94037.75;;;21.78;33.55
6136;BME280;24008;42.664;23.372;2023-03-25T12:48:29;94037.66;;;21.73;33.47
6136;BME280;24008;42.664;23.372;2023-03-25T12:51:04;94060.06;;;21.85;32.65
6136;BME280;24008;42.664;23.372;2023-03-25T12:53:40;94055.63;;;21.86;32.42
6136;BME280;24008;42.664;23.372;2023-03-25T12:56:29;94032.91;;;21.70;32.68
6136;BME280;24008;42.664;23.372;2023-03-25T12:59:12;94019.19;;;21.63;32.96
6136;BME280;24008;42.664;23.372;2023-03-25T13:01:52;94062.22;;;22.00;33.05
6136;BME280;24008;42.664;23.372;2023-03-25T13:04:33;94009.00;;;21.49;32.04
6136;BME280;24008;42.664;23.372;2023-03-25T13:07:06;93896.53;;;20.54;32.66
6136;BME280;24008;42.664;23.372;2023-03-25T13:09:45;94001.09;;;21.21;33.43
6136;BME280;24008;42.664;23.372;2023-03-25T13:12:26;93404.56;;;16.97;33.21
6136;BME280;24008;42.664;23.372;2023-03-25T13:15:01;94018.06;;;21.05;33.63
6136;BME280;24008;42.664;23.372;2023-03-25T13:17:33;94069.47;;;21.33;33.38
6136;BME280;24008;42.664;23.372;2023-03-25T13:20:02;94060.06;;;21.20;34.35
6136;BME280;24008;42.664;23.372;2023-03-25T13:22:37;94076.59;;;21.08;34.18
6136;BME280;24008;42.664;23.372;2023-03-25T13:25:18;94068.06;;;20.89;33.63
6136;BME280;24008;42.664;23.372;2023-03-25T13:27:48;94067.31;;;20.70;34.86